createdAt,value
2022-07-29T00:15:32.931Z,74.1
2022-07-29T00:35:32.878Z,74.7
2022-07-29T00:55:32.809Z,77.3
2022-07-29T01:15:32.885Z,77.5
2022-07-29T01:35:32.798Z,77.1
2022-07-29T01:55:32.749Z,79.5
2022-07-29T02:15:32.793Z,81.5
2022-07-29T02:35:32.717Z,79.7
2022-07-29T02:55:32.654Z,81.3
2022-07-29T03:15:32.691Z,83.7
2022-07-29T03:35:32.660Z,81.3
2022-07-29T03:55:32.573Z,82.3
2022-07-29T04:15:32.613Z,82.1
2022-07-29T04:35:32.559Z,83.7
2022-07-29T04:55:32.505Z,82.1
2022-07-29T05:15:32.542Z,80.3
2022-07-29T05:35:32.484Z,81.7
2022-07-29T05:55:32.423Z,79.9
2022-07-29T06:15:32.517Z,77.6
2022-07-29T06:35:32.409Z,75.1
2022-07-29T06:55:32.350Z,73.3
2022-07-29T07:15:32.389Z,66.8
2022-07-29T07:35:32.323Z,61.8
2022-07-29T07:55:32.264Z,63.2
2022-07-29T08:15:32.294Z,57.4
2022-07-29T08:35:32.234Z,59.2
2022-07-29T08:55:32.173Z,55.0
2022-07-29T09:15:32.212Z,56.7
2022-07-29T09:35:32.143Z,84.7
2022-07-29T09:55:32.085Z,85.6
2022-07-29T10:15:32.124Z,62.0
2022-07-29T10:35:32.055Z,60.2
2022-07-29T10:55:31.998Z,55.8
2022-07-29T11:15:32.070Z,56.1
2022-07-29T11:35:36.721Z,53.8
2022-07-29T11:55:31.904Z,51.9
2022-07-29T12:15:31.939Z,55.3
2022-07-29T12:35:31.886Z,52.9
2022-07-29T12:55:31.812Z,50.8
2022-07-29T13:15:31.846Z,55.5
2022-07-29T13:35:31.795Z,55.2
2022-07-29T13:55:31.716Z,57.3
2022-07-29T14:15:31.746Z,59.3
2022-07-29T14:35:31.688Z,62.2
2022-07-29T14:55:31.621Z,60.3
2022-07-29T15:15:31.711Z,64.8
2022-07-29T15:55:31.530Z,66.8
2022-07-29T16:15:31.552Z,62.2
2022-07-29T16:35:31.482Z,64.6
2022-07-29T16:55:31.518Z,65.0
2022-07-29T17:15:31.449Z,67.0
2022-07-29T17:35:31.373Z,67.1
2022-07-29T17:55:31.407Z,78.8
2022-07-29T18:15:31.338Z,83.0
2022-07-29T18:35:31.373Z,84.7
2022-07-29T18:55:31.305Z,82.2
2022-07-29T19:15:31.333Z,83.1
2022-07-29T19:35:31.270Z,83.8
2022-07-29T19:55:31.196Z,85.3
2022-07-29T20:15:31.230Z,85.9
2022-07-29T20:35:31.162Z,86.1
2022-07-29T20:55:31.195Z,85.9
2022-07-29T21:15:31.125Z,86.5
2022-07-29T21:35:31.062Z,86.8
2022-07-29T21:55:31.096Z,86.9
2022-07-29T22:15:31.035Z,86.7
2022-07-29T22:35:31.057Z,87.0
2022-07-29T22:55:30.986Z,86.9
2022-07-29T23:15:31.016Z,87.2
2022-07-29T23:35:30.955Z,87.4
2022-07-29T23:55:30.887Z,86.8
